sensor_id;sensor_type;location;lat;lon;timestamp;temperature;humidity
10968;DHT22;5536;49.602;10.980;2023-04-12T00:01:09;5.50;99.90
10968;DHT22;5536;49.602;10.980;2023-04-12T00:03:36;5.50;99.90
10968;DHT22;5536;49.602;10.980;2023-04-12T00:06:04;5.50;99.90
10968;DHT22;5536;49.602;10.980;2023-04-12T00:08:32;5.60;99.90
10968;DHT22;5536;49.602;10.980;2023-04-12T00:11:00;5.70;99.90
10968;DHT22;5536;49.602;10.980;2023-04-12T00:13:29;5.60;99.90
10968;DHT22;5536;49.602;10.980;2023-04-12T00:15:56;5.60;99.90
10968;DHT22;5536;49.602;10.980;2023-04-12T00:18:23;5.70;99.90
10968;DHT22;5536;49.602;10.980;2023-04-12T00:20:50;5.90;99.90
10968;DHT22;5536;49.602;10.980;2023-04-12T00:23:17;6.00;99.90
10968;DHT22;5536;49.602;10.980;2023-04-12T00:25:44;6.00;99.90
10968;DHT22;5536;49.602;10.980;2023-04-12T00:28:11;6.10;99.90
10968;DHT22;5536;49.602;10.980;2023-04-12T00:30:40;6.10;99.90
10968;DHT22;5536;49.602;10.980;2023-04-12T00:33:07;6.00;99.90
10968;DHT22;5536;49.602;10.980;2023-04-12T00:35:34;6.00;99.90
10968;DHT22;5536;49.602;10.980;2023-04-12T00:38:01;6.10;99.90
10968;DHT22;5536;49.602;10.980;2023-04-12T00:40:30;6.10;99.90
10968;DHT22;5536;49.602;10.980;2023-04-12T00:42:57;6.10;99.90
10968;DHT22;5536;49.602;10.980;2023-04-12T00:45:24;6.00;99.90
10968;DHT22;5536;49.602;10.980;2023-04-12T00:47:53;6.00;99.90
10968;DHT22;5536;49.602;10.980;2023-04-12T00:50:22;6.00;99.90
10968;DHT22;5536;49.602;10.980;2023-04-12T00:52:49;5.90;99.90
10968;DHT22;5536;49.602;10.980;2023-04-12T00:55:17;6.00;99.90
10968;DHT22;5536;49.602;10.980;2023-04-12T00:57:44;6.10;99.90
10968;DHT22;5536;49.602;10.980;2023-04-12T01:00:12;6.10;99.90
10968;DHT22;5536;49.602;10.980;2023-04-12T01:02:43;6.10;99.90
10968;DHT22;5536;49.602;10.980;2023-04-12T01:05:13;6.10;99.90
10968;DHT22;5536;49.602;10.980;2023-04-12T01:07:50;6.10;99.90
10968;DHT22;5536;49.602;10.980;2023-04-12T01:10:30;6.20;99.90
10968;DHT22;5536;49.602;10.980;2023-04-12T01:13:07;6.30;99.90
10968;DHT22;5536;49.602;10.980;2023-04-12T01:15:40;6.20;99.90
10968;DHT22;5536;49.602;10.980;2023-04-12T01:18:15;6.20;99.90
10968;DHT22;5536;49.602;10.980;2023-04-12T01:20:50;6.20;99.90
10968;DHT22;5536;49.602;10.980;2023-04-12T01:23:33;6.00;99.90
10968;DHT22;5536;49.602;10.980;2023-04-12T01:26:28;6.00;99.90
10968;DHT22;5536;49.602;10.980;2023-04-12T01:29:01;5.90;99.90
10968;DHT22;5536;49.602;10.980;2023-04-12T01:31:30;5.80;99.90
10968;DHT22;5536;49.602;10.980;2023-04-12T01:33:58;5.70;99.90
10968;DHT22;5536;49.602;10.980;2023-04-12T01:36:27;5.70;99.90
10968;DHT22;5536;49.602;10.980;2023-04-12T01:38:56;5.60;99.90
10968;DHT22;5536;49.602;10.980;2023-04-12T01:41:24;5.60;99.90
10968;DHT22;5536;49.602;10.980;2023-04-12T01:43:51;5.70;99.90
10968;DHT22;5536;49.602;10.980;2023-04-12T01:46:21;5.60;99.90
10968;DHT22;5536;49.602;10.980;2023-04-12T01:48:50;5.60;99.90
10968;DHT22;5536;49.602;10.980;2023-04-12T01:51:24;5.70;99.90
10968;DHT22;5536;49.602;10.980;2023-04-12T01:53:56;5.70;99.90
10968;DHT22;5536;49.602;10.980;2023-04-12T01:56:23;5.70;99.90
10968;DHT22;5536;49.602;10.980;2023-04-12T01:58:53;5.70;99.90
10968;DHT22;5536;49.602;10.980;2023-04-12T02:01:23;5.80;99.90
10968;DHT22;5536;49.602;10.980;2023-04-12T02:03:51;5.80;99.90
10968;DHT22;5536;49.602;10.980;2023-04-12T02:06:19;5.70;99.90
10968;DHT22;5536;49.602;10.980;2023-04-12T02:08:46;5.70;99.90
10968;DHT22;5536;49.602;10.980;2023-04-12T02:11:14;5.80;99.90
10968;DHT22;5536;49.602;10.980;2023-04-12T02:13:41;5.90;99.90
10968;DHT22;5536;49.602;10.980;2023-04-12T02:16:08;5.90;99.90
10968;DHT22;5536;49.602;10.980;2023-04-12T02:18:39;6.00;99.90
10968;DHT22;5536;49.602;10.980;2023-04-12T02:21:07;6.00;99.90
10968;DHT22;5536;49.602;10.980;2023-04-12T02:23:34;6.00;99.90
10968;DHT22;5536;49.602;10.980;2023-04-12T02:26:01;6.00;99.90
10968;DHT22;5536;49.602;10.980;2023-04-12T02:28:28;6.00;99.90
10968;DHT22;5536;49.602;10.980;2023-04-12T02:30:55;6.00;99.90
10968;DHT22;5536;49.602;10.980;2023-04-12T02:33:22;6.00;99.90
10968;DHT22;5536;49.602;10.980;2023-04-12T02:35:54;6.00;99.90
10968;DHT22;5536;49.602;10.980;2023-04-12T02:38:22;6.00;99.90
10968;DHT22;5536;49.602;10.980;2023-04-12T02:40:48;6.00;99.90
10968;DHT22;5536;49.602;10.980;2023-04-12T02:43:15;6.10;99.90
10968;DHT22;5536;49.602;10.980;2023-04-12T02:45:42;6.10;99.90
10968;DHT22;5536;49.602;10.980;2023-04-12T02:48:09;6.10;99.90
10968;DHT22;5536;49.602;10.980;2023-04-12T02:50:36;6.20;99.90
10968;DHT22;5536;49.602;10.980;2023-04-12T02:53:05;6.20;99.90
10968;DHT22;5536;49.602;10.980;2023-04-12T02:55:32;6.20;99.90
10968;DHT22;5536;49.602;10.980;2023-04-12T02:57:59;6.30;99.90
10968;DHT22;5536;49.602;10.980;2023-04-12T03:00:26;6.20;99.90
10968;DHT22;5536;49.602;10.980;2023-04-12T03:02:53;6.30;99.90
10968;DHT22;5536;49.602;10.980;2023-04-12T03:05:20;6.30;99.90
10968;DHT22;5536;49.602;10.980;2023-04-12T03:07:47;6.20;99.90
10968;DHT22;5536;49.602;10.980;2023-04-12T03:10:15;6.20;99.90
10968;DHT22;5536;49.602;10.980;2023-04-12T03:12:43;6.30;99.90
10968;DHT22;5536;49.602;10.980;2023-04-12T03:15:10;6.20;99.90
10968;DHT22;5536;49.602;10.980;2023-04-12T03:17:37;6.20;99.90
10968;DHT22;5536;49.602;10.980;2023-04-12T03:20:05;6.20;99.90
10968;DHT22;5536;49.602;10.980;2023-04-12T03:22:35;6.20;99.90
10968;DHT22;5536;49.602;10.980;2023-04-12T03:25:02;6.30;99.90
10968;DHT22;5536;49.602;10.980;2023-04-12T03:27:31;6.50;99.90
10968;DHT22;5536;49.602;10.980;2023-04-12T03:29:58;6.60;99.90
10968;DHT22;5536;49.602;10.980;2023-04-12T03:32:25;6.60;99.90
10968;DHT22;5536;49.602;10.980;2023-04-12T03:34:51;6.50;99.90
10968;DHT22;5536;49.602;10.980;2023-04-12T03:37:18;6.50;99.90
10968;DHT22;5536;49.602;10.980;2023-04-12T03:39:45;6.50;99.90
10968;DHT22;5536;49.602;10.980;2023-04-12T03:42:13;6.50;99.90
10968;DHT22;5536;49.602;10.980;2023-04-12T03:44:41;6.50;99.90
10968;DHT22;5536;49.602;10.980;2023-04-12T03:47:08;6.60;99.90
10968;DHT22;5536;49.602;10.980;2023-04-12T03:49:36;6.60;99.90
10968;DHT22;5536;49.602;10.980;2023-04-12T03:52:04;6.60;99.90
10968;DHT22;5536;49.602;10.980;2023-04-12T03:54:32;6.60;99.90
10968;DHT22;5536;49.602;10.980;2023-04-12T03:56:59;6.50;99.90
10968;DHT22;5536;49.602;10.980;2023-04-12T03:59:27;6.50;99.90
10968;DHT22;5536;49.602;10.980;2023-04-12T04:01:55;6.50;99.90
10968;DHT22;5536;49.602;10.980;2023-04-12T04:04:23;6.50;99.90
10968;DHT22;5536;49.602;10.980;2023-04-12T04:06:50;6.60;99.90
10968;DHT22;5536;49.602;10.980;2023-04-12T04:09:17;6.50;99.90
10968;DHT22;5536;49.602;10.980;2023-04-12T04:11:44;6.50;99.90
10968;DHT22;5536;49.602;10.980;2023-04-12T04:14:11;6.60;99.90
10968;DHT22;5536;49.602;10.980;2023-04-12T04:16:38;6.60;99.90
10968;DHT22;5536;49.602;10.980;2023-04-12T04:19:06;6.50;99.90
10968;DHT22;5536;49.602;10.980;2023-04-12T04:21:33;6.50;99.90
10968;DHT22;5536;49.602;10.980;2023-04-12T04:24:00;6.60;99.90
10968;DHT22;5536;49.602;10.980;2023-04-12T04:26:28;6.60;99.90
10968;DHT22;5536;49.602;10.980;2023-04-12T04:28:58;6.60;99.90
10968;DHT22;5536;49.602;10.980;2023-04-12T04:31:28;6.60;99.90
10968;DHT22;5536;49.602;10.980;2023-04-12T04:33:59;6.60;99.90
10968;DHT22;5536;49.602;10.980;2023-04-12T04:36:29;6.60;99.90
10968;DHT22;5536;49.602;10.980;2023-04-12T04:38:56;6.60;99.90
10968;DHT22;5536;49.602;10.980;2023-04-12T04:41:24;6.60;99.90
10968;DHT22;5536;49.602;10.980;2023-04-12T04:43:51;6.60;99.90
10968;DHT22;5536;49.602;10.980;2023-04-12T04:46:18;6.60;99.90
10968;DHT22;5536;49.602;10.980;2023-04-12T04:48:47;6.60;99.90
10968;DHT22;5536;49.602;10.980;2023-04-12T04:51:14;6.70;99.90
10968;DHT22;5536;49.602;10.980;2023-04-12T04:53:43;6.70;99.90
10968;DHT22;5536;49.602;10.980;2023-04-12T04:56:10;6.70;99.90
10968;DHT22;5536;49.602;10.980;2023-04-12T04:58:37;6.70;99.90
10968;DHT22;5536;49.602;10.980;2023-04-12T05:01:04;6.80;99.90
10968;DHT22;5536;49.602;10.980;2023-04-12T05:03:32;6.80;99.90
10968;DHT22;5536;49.602;10.980;2023-04-12T05:05:59;6.80;99.90
10968;DHT22;5536;49.602;10.980;2023-04-12T05:08:27;6.90;99.90
10968;DHT22;5536;49.602;10.980;2023-04-12T05:10:56;6.90;99.90
10968;DHT22;5536;49.602;10.980;2023-04-12T05:13:23;7.00;99.90
10968;DHT22;5536;49.602;10.980;2023-04-12T05:15:50;7.00;99.90
10968;DHT22;5536;49.602;10.980;2023-04-12T05:18:17;7.00;99.90
10968;DHT22;5536;49.602;10.980;2023-04-12T05:20:44;7.10;99.90
10968;DHT22;5536;49.602;10.980;2023-04-12T05:23:13;7.10;99.90
10968;DHT22;5536;49.602;10.980;2023-04-12T05:25:43;7.10;99.90
10968;DHT22;5536;49.602;10.980;2023-04-12T05:28:13;7.10;99.90
10968;DHT22;5536;49.602;10.980;2023-04-12T05:30:42;7.20;99.90
10968;DHT22;5536;49.602;10.980;2023-04-12T05:33:09;7.20;99.90
10968;DHT22;5536;49.602;10.980;2023-04-12T05:35:36;7.20;99.90
10968;DHT22;5536;49.602;10.980;2023-04-12T05:38:03;7.30;99.90
10968;DHT22;5536;49.602;10.980;2023-04-12T05:40:30;7.30;99.90
10968;DHT22;5536;49.602;10.980;2023-04-12T05:42:57;7.30;99.90
10968;DHT22;5536;49.602;10.980;2023-04-12T05:45:26;7.50;99.90
10968;DHT22;5536;49.602;10.980;2023-04-12T05:47:53;7.50;99.90
10968;DHT22;5536;49.602;10.980;2023-04-12T05:50:21;7.40;99.90
10968;DHT22;5536;49.602;10.980;2023-04-12T05:52:49;7.40;99.90
10968;DHT22;5536;49.602;10.980;2023-04-12T05:55:16;7.40;99.90
10968;DHT22;5536;49.602;10.980;2023-04-12T05:57:44;7.40;99.90
10968;DHT22;5536;49.602;10.980;2023-04-12T06:00:12;7.50;99.90
10968;DHT22;5536;49.602;10.980;2023-04-12T06:02:43;7.50;99.90
10968;DHT22;5536;49.602;10.980;2023-04-12T06:05:11;7.50;99.90
10968;DHT22;5536;49.602;10.980;2023-04-12T06:07:38;7.50;99.90
10968;DHT22;5536;49.602;10.980;2023-04-12T06:10:07;7.50;99.90
10968;DHT22;5536;49.602;10.980;2023-04-12T06:12:34;7.60;99.90
10968;DHT22;5536;49.602;10.980;2023-04-12T06:15:02;7.50;99.90
10968;DHT22;5536;49.602;10.980;2023-04-12T06:17:29;7.50;99.90
10968;DHT22;5536;49.602;10.980;2023-04-12T06:19:57;7.60;99.90
10968;DHT22;5536;49.602;10.980;2023-04-12T06:22:24;7.60;99.90
10968;DHT22;5536;49.602;10.980;2023-04-12T06:24:51;7.60;99.90
10968;DHT22;5536;49.602;10.980;2023-04-12T06:27:18;7.60;99.90
10968;DHT22;5536;49.602;10.980;2023-04-12T06:29:47;7.50;99.90
10968;DHT22;5536;49.602;10.980;2023-04-12T06:32:14;7.50;99.90
10968;DHT22;5536;49.602;10.980;2023-04-12T06:34:41;7.60;99.90
10968;DHT22;5536;49.602;10.980;2023-04-12T06:37:09;7.70;99.90
10968;DHT22;5536;49.602;10.980;2023-04-12T06:39:36;7.70;99.90
10968;DHT22;5536;49.602;10.980;2023-04-12T06:42:03;7.70;99.90
10968;DHT22;5536;49.602;10.980;2023-04-12T06:44:30;7.70;99.90
10968;DHT22;5536;49.602;10.980;2023-04-12T06:46:58;7.70;99.90
10968;DHT22;5536;49.602;10.980;2023-04-12T06:49:25;7.80;99.90
10968;DHT22;5536;49.602;10.980;2023-04-12T06:51:52;7.90;99.90
10968;DHT22;5536;49.602;10.980;2023-04-12T06:54:20;7.80;99.90
10968;DHT22;5536;49.602;10.980;2023-04-12T06:56:48;7.90;99.90
10968;DHT22;5536;49.602;10.980;2023-04-12T06:59:15;7.90;99.90
10968;DHT22;5536;49.602;10.980;2023-04-12T07:01:42;7.90;99.90
10968;DHT22;5536;49.602;10.980;2023-04-12T07:04:10;7.90;99.90
10968;DHT22;5536;49.602;10.980;2023-04-12T07:06:37;8.00;99.90
10968;DHT22;5536;49.602;10.980;2023-04-12T07:09:04;8.00;99.90
10968;DHT22;5536;49.602;10.980;2023-04-12T07:11:32;8.10;99.90
10968;DHT22;5536;49.602;10.980;2023-04-12T07:13:59;8.00;99.90
10968;DHT22;5536;49.602;10.980;2023-04-12T07:16:28;8.00;99.90
10968;DHT22;5536;49.602;10.980;2023-04-12T07:18:55;8.00;99.90
10968;DHT22;5536;49.602;10.980;2023-04-12T07:21:22;7.90;99.90
10968;DHT22;5536;49.602;10.980;2023-04-12T07:23:49;8.00;99.90
10968;DHT22;5536;49.602;10.980;2023-04-12T07:26:16;8.00;99.90
10968;DHT22;5536;49.602;10.980;2023-04-12T07:28:45;8.00;99.90
10968;DHT22;5536;49.602;10.980;2023-04-12T07:31:13;8.10;99.90
10968;DHT22;5536;49.602;10.980;2023-04-12T07:33:40;8.00;99.90
10968;DHT22;5536;49.602;10.980;2023-04-12T07:36:07;8.00;99.90
10968;DHT22;5536;49.602;10.980;2023-04-12T07:38:35;8.00;99.90
10968;DHT22;5536;49.602;10.980;2023-04-12T07:41:02;8.00;99.90
10968;DHT22;5536;49.602;10.980;2023-04-12T07:43:29;8.00;99.90
10968;DHT22;5536;49.602;10.980;2023-04-12T07:45:57;8.00;99.90
10968;DHT22;5536;49.602;10.980;2023-04-12T07:48:24;7.90;99.90
10968;DHT22;5536;49.602;10.980;2023-04-12T07:50:51;8.00;99.90
10968;DHT22;5536;49.602;10.980;2023-04-12T07:53:19;8.00;99.90
10968;DHT22;5536;49.602;10.980;2023-04-12T07:55:47;8.00;99.90
10968;DHT22;5536;49.602;10.980;2023-04-12T07:58:14;8.00;99.90
10968;DHT22;5536;49.602;10.980;2023-04-12T08:00:41;8.10;99.90
10968;DHT22;5536;49.602;10.980;2023-04-12T08:03:10;8.10;99.90
10968;DHT22;5536;49.602;10.980;2023-04-12T08:05:37;8.10;99.90
10968;DHT22;5536;49.602;10.980;2023-04-12T08:08:05;8.20;99.90
10968;DHT22;5536;49.602;10.980;2023-04-12T08:10:34;8.20;99.90
10968;DHT22;5536;49.602;10.980;2023-04-12T08:13:13;8.20;99.90
10968;DHT22;5536;49.602;10.980;2023-04-12T08:15:40;8.20;99.90
10968;DHT22;5536;49.602;10.980;2023-04-12T08:18:09;8.30;99.90
10968;DHT22;5536;49.602;10.980;2023-04-12T08:20:37;8.40;99.90
10968;DHT22;5536;49.602;10.980;2023-04-12T08:23:05;8.40;99.90
10968;DHT22;5536;49.602;10.980;2023-04-12T08:25:32;8.50;99.90
10968;DHT22;5536;49.602;10.980;2023-04-12T08:27:59;8.50;99.90
10968;DHT22;5536;49.602;10.980;2023-04-12T08:30:26;8.70;99.90
10968;DHT22;5536;49.602;10.980;2023-04-12T08:32:53;8.60;99.90
10968;DHT22;5536;49.602;10.980;2023-04-12T08:35:22;8.70;99.90
10968;DHT22;5536;49.602;10.980;2023-04-12T08:37:49;8.70;99.90
10968;DHT22;5536;49.602;10.980;2023-04-12T08:40:17;8.70;99.90
10968;DHT22;5536;49.602;10.980;2023-04-12T08:42:46;8.80;99.90
10968;DHT22;5536;49.602;10.980;2023-04-12T08:45:13;8.70;99.90
10968;DHT22;5536;49.602;10.980;2023-04-12T08:47:42;8.70;99.90
10968;DHT22;5536;49.602;10.980;2023-04-12T08:50:10;8.70;99.90
10968;DHT22;5536;49.602;10.980;2023-04-12T08:52:41;8.90;99.90
10968;DHT22;5536;49.602;10.980;2023-04-12T08:55:09;8.90;99.90
10968;DHT22;5536;49.602;10.980;2023-04-12T08:57:40;8.80;99.90
10968;DHT22;5536;49.602;10.980;2023-04-12T09:00:08;8.90;99.90
10968;DHT22;5536;49.602;10.980;2023-04-12T09:02:36;8.80;99.90
10968;DHT22;5536;49.602;10.980;2023-04-12T09:05:04;8.80;99.90
10968;DHT22;5536;49.602;10.980;2023-04-12T09:07:31;8.90;99.90
10968;DHT22;5536;49.602;10.980;2023-04-12T09:10:00;8.90;99.90
10968;DHT22;5536;49.602;10.980;2023-04-12T09:12:27;8.90;99.90
10968;DHT22;5536;49.602;10.980;2023-04-12T09:15:08;8.90;99.90
10968;DHT22;5536;49.602;10.980;2023-04-12T09:17:37;8.80;99.90
10968;DHT22;5536;49.602;10.980;2023-04-12T09:20:23;8.80;99.90
10968;DHT22;5536;49.602;10.980;2023-04-12T09:22:51;8.80;99.90
10968;DHT22;5536;49.602;10.980;2023-04-12T09:25:35;8.80;99.90
10968;DHT22;5536;49.602;10.980;2023-04-12T09:28:03;8.80;99.90
10968;DHT22;5536;49.602;10.980;2023-04-12T09:30:40;8.70;99.90
10968;DHT22;5536;49.602;10.980;2023-04-12T09:33:10;8.80;99.90
10968;DHT22;5536;49.602;10.980;2023-04-12T09:35:38;8.80;99.90
10968;DHT22;5536;49.602;10.980;2023-04-12T09:38:09;8.90;99.90
10968;DHT22;5536;49.602;10.980;2023-04-12T09:40:37;8.90;99.90
10968;DHT22;5536;49.602;10.980;2023-04-12T09:43:05;8.90;99.90
10968;DHT22;5536;49.602;10.980;2023-04-12T09:45:34;8.90;99.90
10968;DHT22;5536;49.602;10.980;2023-04-12T09:48:04;8.90;99.90
10968;DHT22;5536;49.602;10.980;2023-04-12T09:50:31;8.90;99.90
10968;DHT22;5536;49.602;10.980;2023-04-12T09:53:00;8.90;99.90
10968;DHT22;5536;49.602;10.980;2023-04-12T09:55:28;8.90;99.90
10968;DHT22;5536;49.602;10.980;2023-04-12T09:58:01;8.90;99.90
10968;DHT22;5536;49.602;10.980;2023-04-12T10:00:30;8.90;99.90
10968;DHT22;5536;49.602;10.980;2023-04-12T10:02:59;8.80;99.90
10968;DHT22;5536;49.602;10.980;2023-04-12T10:05:26;9.00;99.90
10968;DHT22;5536;49.602;10.980;2023-04-12T10:07:53;9.10;99.90
10968;DHT22;5536;49.602;10.980;2023-04-12T10:10:21;9.10;99.90
10968;DHT22;5536;49.602;10.980;2023-04-12T10:12:49;9.30;99.90
10968;DHT22;5536;49.602;10.980;2023-04-12T10:15:17;9.30;99.90
10968;DHT22;5536;49.602;10.980;2023-04-12T10:17:47;9.40;99.90
10968;DHT22;5536;49.602;10.980;2023-04-12T10:20:16;9.30;99.90
10968;DHT22;5536;49.602;10.980;2023-04-12T10:22:44;9.40;99.90
10968;DHT22;5536;49.602;10.980;2023-04-12T10:25:12;9.20;99.90
10968;DHT22;5536;49.602;10.980;2023-04-12T10:27:41;9.20;99.90
10968;DHT22;5536;49.602;10.980;2023-04-12T10:30:23;9.20;99.90
10968;DHT22;5536;49.602;10.980;2023-04-12T10:33:12;9.20;99.90
10968;DHT22;5536;49.602;10.980;2023-04-12T10:35:55;9.30;99.90
10968;DHT22;5536;49.602;10.980;2023-04-12T10:38:23;9.40;99.90
10968;DHT22;5536;49.602;10.980;2023-04-12T10:41:13;9.70;99.90
10968;DHT22;5536;49.602;10.980;2023-04-12T10:43:40;9.70;99.90
10968;DHT22;5536;49.602;10.980;2023-04-12T10:46:48;9.70;99.90
10968;DHT22;5536;49.602;10.980;2023-04-12T10:49:16;9.70;99.90
10968;DHT22;5536;49.602;10.980;2023-04-12T10:52:12;9.70;99.90
10968;DHT22;5536;49.602;10.980;2023-04-12T10:54:42;9.60;99.90
10968;DHT22;5536;49.602;10.980;2023-04-12T10:57:41;9.80;99.90
10968;DHT22;5536;49.602;10.980;2023-04-12T11:00:10;9.80;99.90
10968;DHT22;5536;49.602;10.980;2023-04-12T11:03:08;9.90;99.90
10968;DHT22;5536;49.602;10.980;2023-04-12T11:06:00;9.90;99.90
10968;DHT22;5536;49.602;10.980;2023-04-12T11:08:29;9.70;99.90
10968;DHT22;5536;49.602;10.980;2023-04-12T11:11:00;9.60;99.90
10968;DHT22;5536;49.602;10.980;2023-04-12T11:13:28;9.60;99.90
10968;DHT22;5536;49.602;10.980;2023-04-12T11:15:56;9.50;99.90
10968;DHT22;5536;49.602;10.980;2023-04-12T11:18:28;9.50;99.90
10968;DHT22;5536;49.602;10.980;2023-04-12T11:20:56;9.60;99.90
10968;DHT22;5536;49.602;10.980;2023-04-12T11:23:24;9.60;99.90
10968;DHT22;5536;49.602;10.980;2023-04-12T11:25:52;9.60;99.90
10968;DHT22;5536;49.602;10.980;2023-04-12T11:28:19;9.70;99.90
10968;DHT22;5536;49.602;10.980;2023-04-12T11:30:49;9.60;99.90
10968;DHT22;5536;49.602;10.980;2023-04-12T11:33:33;9.70;99.90
10968;DHT22;5536;49.602;10.980;2023-04-12T11:36:05;9.70;99.90
10968;DHT22;5536;49.602;10.980;2023-04-12T11:38:33;9.70;99.90
10968;DHT22;5536;49.602;10.980;2023-04-12T11:41:01;9.70;99.90
10968;DHT22;5536;49.602;10.980;2023-04-12T11:43:28;9.70;99.90
10968;DHT22;5536;49.602;10.980;2023-04-12T11:45:56;9.80;99.90
10968;DHT22;5536;49.602;10.980;2023-04-12T11:48:24;9.80;99.90
10968;DHT22;5536;49.602;10.980;2023-04-12T11:50:53;9.80;99.90
10968;DHT22;5536;49.602;10.980;2023-04-12T11:53:26;9.90;99.90
10968;DHT22;5536;49.602;10.980;2023-04-12T11:55:55;9.90;99.90
10968;DHT22;5536;49.602;10.980;2023-04-12T11:58:24;9.90;99.90
10968;DHT22;5536;49.602;10.980;2023-04-12T12:00:51;9.90;99.90
10968;DHT22;5536;49.602;10.980;2023-04-12T12:03:19;10.00;99.90
10968;DHT22;5536;49.602;10.980;2023-04-12T12:05:46;10.10;99.90
10968;DHT22;5536;49.602;10.980;2023-04-12T12:08:15;10.20;99.90
10968;DHT22;5536;49.602;10.980;2023-04-12T12:10:42;10.10;99.90
10968;DHT22;5536;49.602;10.980;2023-04-12T12:13:11;10.00;99.90
10968;DHT22;5536;49.602;10.980;2023-04-12T12:15:41;10.00;99.90
10968;DHT22;5536;49.602;10.980;2023-04-12T12:18:10;10.00;99.90
10968;DHT22;5536;49.602;10.980;2023-04-12T12:20:41;10.10;99.90
10968;DHT22;5536;49.602;10.980;2023-04-12T12:23:08;10.10;99.90
10968;DHT22;5536;49.602;10.980;2023-04-12T12:25:37;10.10;99.90
10968;DHT22;5536;49.602;10.980;2023-04-12T12:28:04;10.20;99.90
10968;DHT22;5536;49.602;10.980;2023-04-12T12:30:37;10.20;99.90
10968;DHT22;5536;49.602;10.980;2023-04-12T12:33:05;10.20;99.90
10968;DHT22;5536;49.602;10.980;2023-04-12T12:35:34;10.20;99.90
10968;DHT22;5536;49.602;10.980;2023-04-12T12:38:05;10.30;99.90
10968;DHT22;5536;49.602;10.980;2023-04-12T12:40:33;10.40;99.90
10968;DHT22;5536;49.602;10.980;2023-04-12T12:43:02;10.60;99.90
10968;DHT22;5536;49.602;10.980;2023-04-12T12:45:31;10.70;99.90
10968;DHT22;5536;49.602;10.980;2023-04-12T12:47:59;10.70;99.90
10968;DHT22;5536;49.602;10.980;2023-04-12T12:50:27;10.60;99.90
10968;DHT22;5536;49.602;10.980;2023-04-12T12:52:55;10.60;99.90
10968;DHT22;5536;49.602;10.980;2023-04-12T12:55:23;10.60;99.90
10968;DHT22;5536;49.602;10.980;2023-04-12T12:57:51;10.60;99.90
10968;DHT22;5536;49.602;10.980;2023-04-12T13:00:21;10.60;99.90
10968;DHT22;5536;49.602;10.980;2023-04-12T13:02:48;10.50;99.90
10968;DHT22;5536;49.602;10.980;2023-04-12T13:05:16;10.50;99.90
10968;DHT22;5536;49.602;10.980;2023-04-12T13:07:44;10.50;99.90
10968;DHT22;5536;49.602;10.980;2023-04-12T13:10:11;10.70;99.90
10968;DHT22;5536;49.602;10.980;2023-04-12T13:12:38;10.80;99.90
10968;DHT22;5536;49.602;10.980;2023-04-12T13:15:07;10.80;99.90
10968;DHT22;5536;49.602;10.980;2023-04-12T13:17:37;10.80;99.90
10968;DHT22;5536;49.602;10.980;2023-04-12T13:20:05;10.80;99.90
10968;DHT22;5536;49.602;10.980;2023-04-12T13:22:33;10.60;99.90
10968;DHT22;5536;49.602;10.980;2023-04-12T13:25:00;10.60;99.90
10968;DHT22;5536;49.602;10.980;2023-04-12T13:27:27;10.60;99.90
10968;DHT22;5536;49.602;10.980;2023-04-12T13:29:54;10.60;99.90
10968;DHT22;5536;49.602;10.980;2023-04-12T13:32:21;10.90;99.90
10968;DHT22;5536;49.602;10.980;2023-04-12T13:34:49;11.00;99.90
10968;DHT22;5536;49.602;10.980;2023-04-12T13:37:16;11.00;99.90
10968;DHT22;5536;49.602;10.980;2023-04-12T13:39:43;10.90;99.90
10968;DHT22;5536;49.602;10.980;2023-04-12T13:42:10;10.80;99.90
10968;DHT22;5536;49.602;10.980;2023-04-12T13:44:37;10.80;99.90
10968;DHT22;5536;49.602;10.980;2023-04-12T13:47:04;11.00;99.90
10968;DHT22;5536;49.602;10.980;2023-04-12T13:49:31;11.00;99.90
10968;DHT22;5536;49.602;10.980;2023-04-12T13:52:01;11.00;99.90
10968;DHT22;5536;49.602;10.980;2023-04-12T13:54:28;11.00;99.90
10968;DHT22;5536;49.602;10.980;2023-04-12T13:56:55;11.10;99.90
10968;DHT22;5536;49.602;10.980;2023-04-12T13:59:23;11.10;99.90
10968;DHT22;5536;49.602;10.980;2023-04-12T14:01:50;11.20;99.90
10968;DHT22;5536;49.602;10.980;2023-04-12T14:04:17;11.30;99.90
10968;DHT22;5536;49.602;10.980;2023-04-12T14:06:44;11.30;99.90
10968;DHT22;5536;49.602;10.980;2023-04-12T14:09:22;11.40;99.90
10968;DHT22;5536;49.602;10.980;2023-04-12T14:11:50;11.50;99.90
10968;DHT22;5536;49.602;10.980;2023-04-12T14:14:20;11.60;99.90
10968;DHT22;5536;49.602;10.980;2023-04-12T14:16:48;11.70;99.90
10968;DHT22;5536;49.602;10.980;2023-04-12T14:19:16;11.70;99.90
10968;DHT22;5536;49.602;10.980;2023-04-12T14:21:44;11.70;99.90
10968;DHT22;5536;49.602;10.980;2023-04-12T14:24:11;11.80;99.90
10968;DHT22;5536;49.602;10.980;2023-04-12T14:26:40;11.90;99.90
10968;DHT22;5536;49.602;10.980;2023-04-12T14:29:07;11.90;99.90
10968;DHT22;5536;49.602;10.980;2023-04-12T14:31:34;11.90;99.90
10968;DHT22;5536;49.602;10.980;2023-04-12T14:34:01;11.80;99.90
10968;DHT22;5536;49.602;10.980;2023-04-12T14:36:28;11.80;99.90
10968;DHT22;5536;49.602;10.980;2023-04-12T14:38:56;11.90;99.90
10968;DHT22;5536;49.602;10.980;2023-04-12T14:41:23;11.80;99.90
10968;DHT22;5536;49.602;10.980;2023-04-12T14:43:51;11.90;99.90
10968;DHT22;5536;49.602;10.980;2023-04-12T14:46:19;11.90;99.90
10968;DHT22;5536;49.602;10.980;2023-04-12T14:48:46;11.80;99.90
10968;DHT22;5536;49.602;10.980;2023-04-12T14:51:13;11.80;99.90
10968;DHT22;5536;49.602;10.980;2023-04-12T14:53:40;12.00;99.90
10968;DHT22;5536;49.602;10.980;2023-04-12T14:56:16;12.10;99.90
10968;DHT22;5536;49.602;10.980;2023-04-12T14:58:43;12.20;99.90
10968;DHT22;5536;49.602;10.980;2023-04-12T15:01:12;12.70;99.90
10968;DHT22;5536;49.602;10.980;2023-04-12T15:03:39;13.00;99.90
10968;DHT22;5536;49.602;10.980;2023-04-12T15:06:07;13.00;99.90
10968;DHT22;5536;49.602;10.980;2023-04-12T15:08:34;12.80;99.90
10968;DHT22;5536;49.602;10.980;2023-04-12T15:11:08;12.80;99.90
10968;DHT22;5536;49.602;10.980;2023-04-12T15:13:35;12.80;99.90
10968;DHT22;5536;49.602;10.980;2023-04-12T15:16:05;12.90;99.90
10968;DHT22;5536;49.602;10.980;2023-04-12T15:18:35;13.00;99.90
10968;DHT22;5536;49.602;10.980;2023-04-12T15:21:05;13.00;99.90
10968;DHT22;5536;49.602;10.980;2023-04-12T15:23:33;12.90;99.90
10968;DHT22;5536;49.602;10.980;2023-04-12T15:26:01;12.90;99.90
10968;DHT22;5536;49.602;10.980;2023-04-12T15:28:31;13.10;99.90
10968;DHT22;5536;49.602;10.980;2023-04-12T15:30:58;13.20;99.90
10968;DHT22;5536;49.602;10.980;2023-04-12T15:33:25;13.50;99.90
10968;DHT22;5536;49.602;10.980;2023-04-12T15:35:54;13.60;99.90
10968;DHT22;5536;49.602;10.980;2023-04-12T15:38:22;13.80;99.90
10968;DHT22;5536;49.602;10.980;2023-04-12T15:40:53;14.00;99.90
10968;DHT22;5536;49.602;10.980;2023-04-12T15:43:21;14.80;99.90
10968;DHT22;5536;49.602;10.980;2023-04-12T15:45:49;15.20;99.90
10968;DHT22;5536;49.602;10.980;2023-04-12T15:48:18;15.10;99.90
10968;DHT22;5536;49.602;10.980;2023-04-12T15:50:46;14.80;99.90
10968;DHT22;5536;49.602;10.980;2023-04-12T15:53:17;14.80;99.90